Time;durP1;ratioP1;P1;durP2;ratioP2;P2;SDS_P1;SDS_P2;PMS_P1;PMS_P2;Temp;Humidity;BMP_temperature;BMP_pressure;BME280_temperature;BME280_humidity;BME280_pressure;Samples;Min_cycle;Max_cycle;Signal;HPM_P1;HPM_P2
2022/05/30 00:02:18;;;;;;;8.40;2.03;;;8.30;99.90;;;;;;4989174;28;20120;-85
2022/05/30 00:04:44;;;;;;;7.45;2.08;;;8.30;99.90;;;;;;4972116;28;20117;-85
2022/05/30 00:07:10;;;;;;;11.60;2.80;;;;;;;;;;4970662;28;20077;-85
2022/05/30 00:09:36;;;;;;;10.85;2.30;;;8.30;99.90;;;;;;4978407;28;20058;-84
2022/05/30 00:12:03;;;;;;;10.48;2.22;;;8.20;99.90;;;;;;5003820;28;20085;-85
2022/05/30 00:14:29;;;;;;;8.27;2.25;;;;;;;;;;4962437;28;20046;-84
2022/05/30 00:16:55;;;;;;;9.18;2.25;;;;;;;;;;4967978;28;20073;-85
2022/05/30 00:19:21;;;;;;;8.93;2.67;;;8.20;99.90;;;;;;4968207;28;20046;-85
2022/05/30 00:21:48;;;;;;;7.68;2.10;;;7.70;99.90;;;;;;4985436;28;20531;-85
2022/05/30 00:24:13;;;;;;;12.52;2.30;;;8.20;99.90;;;;;;4946681;28;20126;-85
2022/05/30 00:26:39;;;;;;;12.93;2.75;;;8.10;99.90;;;;;;4986269;28;20125;-84
2022/05/30 00:29:06;;;;;;;12.15;2.40;;;8.10;99.90;;;;;;4950165;28;20050;-85
2022/05/30 00:31:35;;;;;;;9.05;2.33;;;8.10;99.90;;;;;;4979365;28;20134;-84
2022/05/30 00:34:02;;;;;;;8.50;2.30;;;7.50;99.90;;;;;;4963876;28;20047;-87
2022/05/30 00:36:37;;;;;;;11.60;2.65;;;8.10;99.90;;;;;;4970807;28;20493;-86
2022/05/30 00:39:03;;;;;;;10.73;2.80;;;8.10;99.90;;;;;;4986114;28;20045;-85
2022/05/30 00:41:29;;;;;;;13.82;3.13;;;8.10;99.90;;;;;;4981761;28;20034;-85
2022/05/30 00:43:55;;;;;;;11.60;2.90;;;8.10;99.90;;;;;;4965473;28;20122;-83
2022/05/30 00:46:21;;;;;;;11.55;3.05;;;8.10;99.90;;;;;;4977644;28;20129;-85
2022/05/30 00:48:53;;;;;;;10.30;2.65;;;8.10;99.90;;;;;;4964513;28;20057;-87
2022/05/30 00:51:27;;;;;;;9.45;2.70;;;8.10;99.90;;;;;;4981219;28;20064;-85
2022/05/30 00:53:56;;;;;;;8.43;2.28;;;5.90;99.90;;;;;;4981706;28;20530;-85
2022/05/30 00:56:29;;;;;;;7.28;2.08;;;8.20;99.90;;;;;;4977847;28;20046;-85
2022/05/30 00:58:57;;;;;;;9.30;2.60;;;8.20;99.90;;;;;;4962210;28;20046;-84
2022/05/30 01:01:23;;;;;;;8.35;2.28;;;8.10;99.90;;;;;;4982104;28;20438;-85
2022/05/30 01:06:44;;;;;;;7.67;1.93;;;8.10;99.90;;;;;;4987430;28;20165;-86
2022/05/30 01:09:17;;;;;;;9.32;2.30;;;9.20;99.90;;;;;;4984130;28;20062;-86
2022/05/30 01:11:59;;;;;;;;;;;8.20;99.90;;;;;;4975840;28;20050;-84
2022/05/30 01:14:37;;;;;;;9.32;2.20;;;8.20;99.90;;;;;;4982770;28;20754;-85
2022/05/30 01:17:08;;;;;;;9.52;2.17;;;8.20;99.90;;;;;;4976523;28;20568;-84
2022/05/30 01:19:56;;;;;;;10.27;2.05;;;8.20;99.90;;;;;;4979589;28;20472;-85
2022/05/30 01:22:27;;;;;;;8.05;2.10;;;8.30;99.90;;;;;;4979020;28;20043;-84
2022/05/30 01:25:12;;;;;;;9.77;2.15;;;8.30;99.90;;;;;;4970638;28;20064;-85
2022/05/30 01:27:50;;;;;;;10.18;2.10;;;8.30;99.90;;;;;;4967247;28;20393;-84
2022/05/30 01:30:16;;;;;;;8.25;2.38;;;8.30;99.90;;;;;;4987428;28;20101;-84
2022/05/30 01:32:42;;;;;;;9.68;1.85;;;9.90;99.90;;;;;;4963874;28;20094;-85
2022/05/30 01:35:09;;;;;;;8.38;1.70;;;;;;;;;;4966378;28;20070;-83
2022/05/30 01:37:35;;;;;;;9.15;1.80;;;8.40;99.90;;;;;;4966794;28;20126;-85
2022/05/30 01:40:04;;;;;;;8.77;1.95;;;8.40;99.90;;;;;;4982553;28;20118;-85
2022/05/30 01:42:30;;;;;;;6.85;1.90;;;8.30;99.90;;;;;;4962774;28;20221;-84
2022/05/30 01:44:56;;;;;;;9.02;1.98;;;8.50;99.90;;;;;;4965847;28;20209;-85
2022/05/30 01:47:24;;;;;;;8.65;2.03;;;8.50;99.90;;;;;;4984599;28;20050;-84
2022/05/30 01:49:53;;;;;;;6.45;1.80;;;8.90;99.90;;;;;;4965592;28;20039;-84
2022/05/30 01:52:19;;;;;;;9.85;2.10;;;9.50;99.90;;;;;;4997995;28;20121;-86
2022/05/30 01:54:44;;;;;;;6.10;1.70;;;8.40;99.90;;;;;;4982449;28;20788;-85
2022/05/30 01:57:10;;;;;;;8.18;1.95;;;;;;;;;;4969844;28;20069;-85
2022/05/30 01:59:36;;;;;;;8.43;1.75;;;8.30;99.90;;;;;;4967982;28;20050;-83
2022/05/30 02:02:02;;;;;;;7.47;2.00;;;8.30;99.90;;;;;;4987531;28;20125;-84
2022/05/30 02:04:28;;;;;;;8.90;2.40;;;7.50;99.90;;;;;;4985011;28;20122;-85
2022/05/30 02:06:54;;;;;;;7.85;2.15;;;8.20;99.90;;;;;;4979976;28;20059;-85
2022/05/30 02:09:20;;;;;;;8.63;2.50;;;8.30;99.90;;;;;;4961349;28;20052;-83
2022/05/30 02:11:46;;;;;;;8.20;2.60;;;9.40;99.90;;;;;;5005753;28;20910;-84
2022/05/30 02:14:11;;;;;;;9.05;2.78;;;8.10;99.90;;;;;;4986505;28;20046;-85
2022/05/30 02:19:24;;;;;;;11.10;2.60;;;8.30;99.90;;;;;;4974774;28;20046;-86
2022/05/30 02:21:50;;;;;;;8.88;2.40;;;8.10;99.90;;;;;;4982696;28;20108;-84
2022/05/30 02:24:19;;;;;;;7.18;2.10;;;8.10;99.90;;;;;;4983912;28;20511;-83
2022/05/30 02:26:45;;;;;;;8.18;2.40;;;8.00;99.90;;;;;;4992815;28;20048;-84
2022/05/30 02:29:11;;;;;;;7.47;2.50;;;8.00;99.90;;;;;;4969171;28;20502;-84
2022/05/30 02:31:39;;;;;;;8.10;2.53;;;8.00;99.90;;;;;;4986374;28;20052;-83
2022/05/30 02:36:51;;;;;;;7.60;2.50;;;7.90;99.90;;;;;;5006975;28;20489;-84
2022/05/30 02:39:19;;;;;;;8.15;2.40;;;7.90;99.90;;;;;;4987043;28;20104;-85
2022/05/30 02:41:46;;;;;;;7.93;2.30;;;7.90;99.90;;;;;;4983689;28;20038;-84
2022/05/30 02:44:14;;;;;;;6.07;2.00;;;7.90;99.90;;;;;;4971853;28;20069;-85
2022/05/30 02:46:41;;;;;;;9.70;2.50;;;;;;;;;;4999345;28;20034;-85
2022/05/30 02:49:08;;;;;;;7.53;2.55;;;;;;;;;;4996552;28;20041;-85
2022/05/30 02:51:34;;;;;;;7.63;2.22;;;7.80;99.90;;;;;;5005745;28;20042;-84
2022/05/30 02:53:59;;;;;;;8.48;2.88;;;7.80;99.90;;;;;;4984752;28;20038;-85
2022/05/30 02:56:25;;;;;;;8.07;2.78;;;7.80;99.90;;;;;;5005409;28;20077;-87
2022/05/30 02:58:51;;;;;;;8.77;2.67;;;7.90;99.90;;;;;;4988174;28;20058;-86
2022/05/30 03:01:18;;;;;;;7.68;2.30;;;6.60;99.90;;;;;;5006413;28;20050;-84
2022/05/30 03:03:44;;;;;;;7.63;2.50;;;7.80;99.90;;;;;;4971944;28;20046;-84
2022/05/30 03:06:10;;;;;;;8.23;2.67;;;7.90;99.90;;;;;;4999236;28;21974;-84
2022/05/30 03:08:39;;;;;;;9.63;2.70;;;7.90;99.90;;;;;;4968410;28;20094;-84
2022/05/30 03:11:05;;;;;;;9.30;2.20;;;7.90;99.90;;;;;;4969824;28;20521;-84
2022/05/30 03:13:34;;;;;;;4.40;1.75;;;9.20;99.90;;;;;;4971426;28;20053;-83
2022/05/30 03:16:00;;;;;;;6.53;2.28;;;8.00;99.90;;;;;;5003523;28;20041;-84
2022/05/30 03:18:26;;;;;;;8.15;2.40;;;8.10;99.90;;;;;;4984995;28;20042;-84
2022/05/30 03:20:52;;;;;;;8.57;2.15;;;8.00;99.90;;;;;;4974727;28;20092;-84
2022/05/30 03:23:18;;;;;;;7.93;2.25;;;8.60;99.90;;;;;;4986628;28;20531;-84
2022/05/30 03:25:44;;;;;;;8.13;2.13;;;8.00;99.90;;;;;;4986574;28;20054;-85
2022/05/30 03:28:09;;;;;;;5.57;2.10;;;8.10;99.90;;;;;;4984294;28;20045;-84
2022/05/30 03:30:37;;;;;;;7.57;2.70;;;8.40;99.90;;;;;;4969213;28;20047;-84
2022/05/30 03:33:10;;;;;;;7.40;2.22;;;8.10;99.90;;;;;;4987547;28;20370;-84
2022/05/30 03:35:40;;;;;;;7.60;2.38;;;8.10;99.90;;;;;;5000532;28;20047;-84
2022/05/30 03:38:07;;;;;;;7.18;2.20;;;8.10;99.90;;;;;;4985391;28;20043;-84
2022/05/30 03:40:36;;;;;;;7.53;2.20;;;8.10;99.90;;;;;;4984794;28;20038;-84
2022/05/30 03:43:04;;;;;;;6.43;1.95;;;8.10;99.90;;;;;;4982170;28;20116;-84
2022/05/30 03:45:32;;;;;;;7.68;2.05;;;8.10;99.90;;;;;;4990075;28;20401;-84
2022/05/30 03:48:01;;;;;;;7.65;2.20;;;8.10;99.90;;;;;;4982628;28;20092;-84
2022/05/30 03:50:29;;;;;;;7.15;2.10;;;8.10;99.90;;;;;;4987602;28;20066;-86
2022/05/30 03:52:54;;;;;;;7.75;2.00;;;8.20;99.90;;;;;;4984212;28;20130;-83
2022/05/30 03:55:22;;;;;;;5.68;1.90;;;9.50;99.90;;;;;;4985555;28;20130;-84
2022/05/30 03:57:48;;;;;;;9.50;2.10;;;8.20;99.90;;;;;;4980683;28;20049;-84
2022/05/30 04:00:17;;;;;;;6.65;2.00;;;8.20;99.90;;;;;;4966071;28;20064;-84
2022/05/30 04:02:47;;;;;;;8.00;2.20;;;8.20;99.90;;;;;;5005197;28;20362;-84
2022/05/30 04:05:14;;;;;;;7.85;2.20;;;10.60;99.90;;;;;;4984230;28;20793;-85
2022/05/30 04:07:41;;;;;;;7.70;2.22;;;8.90;99.90;;;;;;4985585;28;20061;-84
2022/05/30 04:10:07;;;;;;;7.55;2.00;;;8.30;99.90;;;;;;4981523;28;20050;-83
2022/05/30 04:12:33;;;;;;;7.57;2.10;;;8.40;99.90;;;;;;4978287;28;20486;-85
2022/05/30 04:15:00;;;;;;;10.68;2.40;;;8.40;99.90;;;;;;4962167;28;20138;-84
2022/05/30 04:17:27;;;;;;;8.32;2.10;;;8.40;99.90;;;;;;4966658;28;20456;-84
2022/05/30 04:19:54;;;;;;;7.90;2.30;;;8.50;99.90;;;;;;4962901;28;20048;-85
2022/05/30 04:22:20;;;;;;;8.10;2.47;;;8.50;99.90;;;;;;4961009;28;20503;-84
2022/05/30 04:24:46;;;;;;;8.27;2.88;;;8.50;99.90;;;;;;5001507;28;20223;-84
2022/05/30 04:27:12;;;;;;;8.77;2.70;;;8.50;99.90;;;;;;4992164;28;20046;-84
2022/05/30 04:29:39;;;;;;;8.27;2.70;;;9.30;99.90;;;;;;4991348;28;20070;-84
2022/05/30 04:32:06;;;;;;;7.00;2.50;;;8.50;99.90;;;;;;4956534;28;20030;-84
2022/05/30 04:34:33;;;;;;;7.18;2.30;;;8.40;99.90;;;;;;4975744;28;20046;-85
2022/05/30 04:37:03;;;;;;;7.38;2.45;;;8.50;99.90;;;;;;4991459;28;20038;-84
2022/05/30 04:39:30;;;;;;;8.98;2.10;;;8.60;99.90;;;;;;4989187;28;20030;-85
2022/05/30 04:41:56;;;;;;;5.85;1.90;;;8.60;99.90;;;;;;4962835;28;20113;-85
2022/05/30 04:44:24;;;;;;;8.50;2.17;;;8.50;99.90;;;;;;4985686;28;20608;-84
2022/05/30 04:46:54;;;;;;;7.93;2.20;;;8.60;99.90;;;;;;4958281;28;20037;-86
2022/05/30 04:49:21;;;;;;;9.18;2.35;;;8.60;99.90;;;;;;4979916;28;20109;-85
2022/05/30 04:51:56;;;;;;;8.82;2.15;;;8.70;99.90;;;;;;4965398;28;20104;-85
2022/05/30 04:54:22;;;;;;;8.30;2.10;;;8.70;99.90;;;;;;4962319;28;20046;-84
2022/05/30 04:56:48;;;;;;;5.72;1.88;;;8.80;99.90;;;;;;4995333;28;20038;-85
2022/05/30 04:59:14;;;;;;;6.20;1.92;;;9.10;99.90;;;;;;4997589;28;20374;-85
2022/05/30 05:01:40;;;;;;;11.35;2.67;;;;;;;;;;4992257;28;20377;-85
2022/05/30 05:04:08;;;;;;;8.55;2.58;;;9.10;99.90;;;;;;4996947;28;20109;-84
2022/05/30 05:06:34;;;;;;;8.43;2.40;;;9.30;99.90;;;;;;4964610;28;20460;-85
2022/05/30 05:09:16;;;;;;;7.97;2.30;;;9.20;99.90;;;;;;4965191;28;20054;-85
2022/05/30 05:11:43;;;;;;;9.43;2.40;;;9.30;99.90;;;;;;5000384;28;20125;-84
2022/05/30 05:14:09;;;;;;;8.27;2.42;;;9.40;99.90;;;;;;4982177;28;20050;-85
2022/05/30 05:16:35;;;;;;;7.00;2.00;;;9.70;99.90;;;;;;4985260;28;20305;-85
2022/05/30 05:19:01;;;;;;;6.10;2.03;;;9.30;99.90;;;;;;4979735;28;20038;-85
2022/05/30 05:21:30;;;;;;;5.90;1.92;;;9.40;99.90;;;;;;4984467;28;20104;-84
2022/05/30 05:23:58;;;;;;;8.05;2.20;;;9.50;99.90;;;;;;4979725;28;20489;-85
2022/05/30 05:26:24;;;;;;;6.97;1.95;;;9.50;99.90;;;;;;5005877;28;20067;-84
2022/05/30 05:28:50;;;;;;;6.32;2.00;;;;;;;;;;4997744;28;20041;-84
2022/05/30 05:31:34;;;;;;;7.63;1.95;;;9.60;99.90;;;;;;4969878;28;20182;-84
2022/05/30 05:34:06;;;;;;;6.60;2.00;;;9.20;99.90;;;;;;5001241;28;20500;-85
2022/05/30 05:36:46;;;;;;;8.98;2.13;;;9.70;99.90;;;;;;5001139;28;20319;-84
2022/05/30 05:39:13;;;;;;;6.30;2.15;;;9.70;99.90;;;;;;5005619;28;20060;-83
2022/05/30 05:41:44;;;;;;;6.20;1.80;;;9.90;99.90;;;;;;4987132;28;20042;-84
2022/05/30 05:44:10;;;;;;;6.38;2.03;;;;;;;;;;4980434;28;20802;-83
2022/05/30 05:46:36;;;;;;;10.20;2.22;;;10.20;99.90;;;;;;4991373;28;20049;-84
2022/05/30 05:49:06;;;;;;;5.82;2.00;;;10.30;99.90;;;;;;4986247;28;20117;-84
2022/05/30 05:51:35;;;;;;;7.00;1.80;;;10.20;99.90;;;;;;4966838;28;20099;-84
2022/05/30 05:54:01;;;;;;;7.85;1.90;;;10.30;99.90;;;;;;4966591;28;20456;-84
2022/05/30 05:56:29;;;;;;;5.97;1.80;;;10.40;99.90;;;;;;5002844;28;20324;-83
2022/05/30 05:58:55;;;;;;;5.82;1.73;;;9.60;99.90;;;;;;5007239;28;20099;-83
2022/05/30 06:01:25;;;;;;;5.97;1.90;;;10.80;99.90;;;;;;4973507;28;20042;-84
2022/05/30 06:03:54;;;;;;;;;;;10.80;99.90;;;;;;4970317;28;20042;-84
2022/05/30 06:06:22;;;;;;;5.22;1.60;;;10.80;99.90;;;;;;5005907;28;20393;-84
2022/05/30 06:08:50;;;;;;;7.00;1.60;;;10.90;99.90;;;;;;4978265;28;20138;-84
2022/05/30 06:11:16;;;;;;;5.03;1.40;;;10.90;99.90;;;;;;4966422;28;20042;-84
2022/05/30 06:13:45;;;;;;;6.28;1.70;;;10.90;99.90;;;;;;4939922;28;20034;-84
2022/05/30 06:16:19;;;;;;;7.22;2.00;;;10.80;99.90;;;;;;4967668;28;20034;-84
2022/05/30 06:18:45;;;;;;;8.13;2.13;;;10.90;99.90;;;;;;4968009;28;20039;-83
2022/05/30 06:21:11;;;;;;;5.95;1.65;;;10.90;99.90;;;;;;4973927;28;20042;-84
2022/05/30 06:23:37;;;;;;;5.07;1.80;;;11.00;99.90;;;;;;4983365;28;20062;-84
2022/05/30 06:26:09;;;;;;;7.18;1.90;;;11.00;99.90;;;;;;4963414;28;20097;-83
2022/05/30 06:28:38;;;;;;;7.03;1.95;;;11.10;99.90;;;;;;4939361;28;20081;-84
2022/05/30 06:31:10;;;;;;;5.45;1.88;;;11.10;99.90;;;;;;4967937;28;20101;-84
2022/05/30 06:33:36;;;;;;;9.98;2.20;;;11.20;99.90;;;;;;4995572;28;20038;-85
2022/05/30 06:36:04;;;;;;;6.80;2.22;;;11.30;99.90;;;;;;4949500;28;20042;-84
2022/05/30 06:38:30;;;;;;;8.23;1.95;;;;;;;;;;4955398;28;20129;-85
2022/05/30 06:40:56;;;;;;;6.10;1.58;;;11.40;99.90;;;;;;4983237;28;20122;-85
2022/05/30 06:43:22;;;;;;;5.32;1.90;;;11.30;99.90;;;;;;4966868;28;20130;-84
2022/05/30 06:45:48;;;;;;;8.75;1.85;;;;;;;;;;4966978;28;20061;-83
2022/05/30 06:48:15;;;;;;;6.95;1.77;;;11.40;99.90;;;;;;4939728;28;20047;-84
2022/05/30 06:50:41;;;;;;;7.32;1.60;;;11.40;99.90;;;;;;4948010;28;20053;-85
2022/05/30 06:53:07;;;;;;;4.85;1.52;;;11.40;99.90;;;;;;4979544;28;20038;-84
2022/05/30 06:55:33;;;;;;;4.63;1.42;;;11.30;99.90;;;;;;4984736;28;20093;-84
2022/05/30 06:58:14;;;;;;;3.63;1.50;;;11.30;99.90;;;;;;4964071;28;20046;-85
2022/05/30 07:00:41;;;;;;;4.50;1.50;;;11.30;99.90;;;;;;4965966;28;20057;-85
2022/05/30 07:03:09;;;;;;;4.32;1.48;;;11.10;99.90;;;;;;4964437;28;20101;-84
2022/05/30 07:05:36;;;;;;;6.22;1.40;;;11.10;99.90;;;;;;4953298;28;20050;-85
2022/05/30 07:08:02;;;;;;;2.58;1.30;;;11.20;99.90;;;;;;4959336;28;20047;-84
2022/05/30 07:10:30;;;;;;;5.75;1.40;;;11.10;99.90;;;;;;4981189;28;20435;-84
2022/05/30 07:12:59;;;;;;;5.88;1.30;;;11.10;99.90;;;;;;4980401;28;20113;-86
2022/05/30 07:15:26;;;;;;;5.20;1.33;;;11.00;99.90;;;;;;4953114;28;20546;-85
2022/05/30 07:17:53;;;;;;;2.30;1.10;;;;;;;;;;4984130;28;20049;-85
2022/05/30 07:20:19;;;;;;;3.13;1.20;;;11.10;99.90;;;;;;4949108;28;20038;-83
2022/05/30 07:22:44;;;;;;;7.75;1.73;;;11.20;99.90;;;;;;4965007;28;20050;-85
2022/05/30 07:25:13;;;;;;;5.10;1.20;;;11.30;99.90;;;;;;4963234;28;20046;-86
2022/05/30 07:27:39;;;;;;;3.25;1.10;;;11.30;99.90;;;;;;4983530;28;20039;-84
2022/05/30 07:30:06;;;;;;;3.83;1.38;;;11.40;99.90;;;;;;4953985;28;20042;-86
2022/05/30 07:32:33;;;;;;;2.97;1.20;;;11.40;99.90;;;;;;4967310;28;20089;-85
2022/05/30 07:35:00;;;;;;;3.92;1.23;;;11.50;99.90;;;;;;4978357;28;20050;-84
2022/05/30 07:37:32;;;;;;;4.30;1.10;;;11.60;99.90;;;;;;4965777;28;20321;-85
2022/05/30 07:39:58;;;;;;;3.30;1.10;;;;;;;;;;4949170;28;20495;-85
2022/05/30 07:42:24;;;;;;;4.43;1.48;;;;;;;;;;4958232;28;20047;-85
2022/05/30 07:44:50;;;;;;;5.28;1.30;;;11.50;99.90;;;;;;4957612;28;20038;-84
2022/05/30 07:47:17;;;;;;;3.72;1.13;;;11.50;99.90;;;;;;4973926;28;20394;-84
2022/05/30 07:49:47;;;;;;;4.38;1.30;;;11.60;99.90;;;;;;4951064;28;20046;-86
2022/05/30 07:52:17;;;;;;;2.28;1.13;;;11.60;99.90;;;;;;4971548;28;20047;-84
2022/05/30 07:54:43;;;;;;;2.95;1.20;;;11.70;99.90;;;;;;4948134;28;20130;-84
2022/05/30 07:57:10;;;;;;;2.92;1.30;;;11.80;99.90;;;;;;4974459;28;20053;-84
2022/05/30 07:59:39;;;;;;;4.43;1.10;;;11.90;99.90;;;;;;4972970;28;20050;-84
2022/05/30 08:02:07;;;;;;;1.98;0.90;;;11.90;99.90;;;;;;4970467;28;20041;-84
2022/05/30 08:04:37;;;;;;;2.25;0.90;;;11.90;99.90;;;;;;4970750;28;20073;-86
2022/05/30 08:07:05;;;;;;;4.25;1.30;;;11.90;99.90;;;;;;4975061;28;20038;-84
2022/05/30 08:09:31;;;;;;;3.90;1.33;;;;;;;;;;4975593;28;20446;-84
2022/05/30 08:12:15;;;;;;;3.50;1.05;;;12.30;99.90;;;;;;4977873;28;20512;-84
2022/05/30 08:14:44;;;;;;;3.35;1.10;;;12.70;99.90;;;;;;4961654;28;20042;-85
2022/05/30 08:17:09;;;;;;;3.97;0.88;;;13.00;99.90;;;;;;4997203;28;20047;-84
2022/05/30 08:19:41;;;;;;;2.00;0.95;;;13.20;99.90;;;;;;4974512;28;20047;-83
2022/05/30 08:22:09;;;;;;;2.63;1.00;;;13.60;99.90;;;;;;4976605;28;20050;-85
2022/05/30 08:24:47;;;;;;;3.22;1.00;;;13.60;99.90;;;;;;4967967;28;20406;-84
2022/05/30 08:27:13;;;;;;;2.22;0.90;;;13.90;99.90;;;;;;4965347;28;20065;-85
2022/05/30 08:29:39;;;;;;;5.45;1.15;;;14.10;99.90;;;;;;5000864;28;20397;-84
2022/05/30 08:32:08;;;;;;;3.65;1.20;;;14.40;99.90;;;;;;4960954;28;20042;-84
2022/05/30 08:34:36;;;;;;;3.88;1.17;;;14.60;99.90;;;;;;4978500;28;20046;-83
2022/05/30 08:37:04;;;;;;;1.25;1.05;;;14.20;99.90;;;;;;4971221;28;20555;-84
2022/05/30 08:42:15;;;;;;;4.47;1.13;;;14.00;99.90;;;;;;4978298;28;20088;-83
2022/05/30 08:44:50;;;;;;;4.75;1.20;;;13.80;99.90;;;;;;4980007;28;20042;-85
2022/05/30 08:47:31;;;;;;;4.45;1.23;;;13.60;99.90;;;;;;4967791;28;20105;-85
2022/05/30 08:50:13;;;;;;;3.70;1.20;;;13.50;99.90;;;;;;4965382;28;20144;-86
2022/05/30 08:52:50;;;;;;;4.22;1.17;;;13.30;99.90;;;;;;4983570;28;20184;-85
2022/05/30 08:55:26;;;;;;;4.20;1.10;;;14.60;99.90;;;;;;4984752;28;20291;-84
2022/05/30 08:57:57;;;;;;;3.42;1.17;;;12.80;99.90;;;;;;4984212;28;20062;-85
2022/05/30 09:00:41;;;;;;;4.72;1.15;;;12.80;99.90;;;;;;4966359;28;20489;-84
2022/05/30 09:03:19;;;;;;;2.60;1.20;;;14.10;99.90;;;;;;4963397;28;20125;-85
2022/05/30 09:06:23;;;;;;;5.75;1.75;;;12.90;99.90;;;;;;4967469;28;20073;-86
2022/05/30 09:08:53;;;;;;;4.45;1.27;;;12.90;99.90;;;;;;4966807;28;20069;-84
2022/05/30 09:11:25;;;;;;;5.10;1.45;;;13.00;99.90;;;;;;4987242;28;20141;-85
2022/05/30 09:13:54;;;;;;;4.35;1.10;;;12.90;99.90;;;;;;4970652;28;20053;-86
2022/05/30 09:16:22;;;;;;;6.55;1.25;;;;;;;;;;4971694;28;20492;-85
2022/05/30 09:18:53;;;;;;;4.35;1.30;;;12.80;99.90;;;;;;5002203;28;20051;-84
2022/05/30 09:21:22;;;;;;;6.35;1.33;;;12.80;99.90;;;;;;4988720;28;20042;-84
2022/05/30 09:23:51;;;;;;;5.43;1.42;;;12.90;99.90;;;;;;4970656;28;20042;-84
2022/05/30 09:26:22;;;;;;;6.80;1.48;;;13.00;99.90;;;;;;4986979;28;20048;-85
2022/05/30 09:28:50;;;;;;;2.97;1.02;;;13.20;99.90;;;;;;4987754;28;20045;-85
2022/05/30 09:31:40;;;;;;;2.80;1.13;;;13.40;99.90;;;;;;5004581;28;20038;-85
2022/05/30 09:34:28;;;;;;;2.38;1.02;;;13.70;99.90;;;;;;4986675;28;20528;-86
2022/05/30 09:37:00;;;;;;;2.35;0.98;;;12.50;99.90;;;;;;4981434;28;20195;-85
2022/05/30 09:39:41;;;;;;;2.90;1.13;;;13.40;99.90;;;;;;4988310;28;20396;-86
2022/05/30 09:42:30;;;;;;;4.25;1.20;;;13.40;99.90;;;;;;5004894;28;20108;-84
2022/05/30 09:45:09;;;;;;;2.92;1.10;;;13.30;99.90;;;;;;4988976;28;20065;-86
2022/05/30 09:47:38;;;;;;;4.68;1.20;;;13.20;99.90;;;;;;4985379;28;20054;-85
2022/05/30 09:50:19;;;;;;;3.75;1.20;;;13.10;99.90;;;;;;4970212;28;20165;-84
2022/05/30 09:52:45;;;;;;;3.65;1.10;;;13.10;99.90;;;;;;4985329;28;20113;-86
2022/05/30 09:55:46;;;;;;;2.45;0.90;;;13.10;99.90;;;;;;4973467;28;20132;-86
2022/05/30 09:58:12;;;;;;;4.45;1.25;;;13.30;99.90;;;;;;4970303;28;20038;-85
2022/05/30 10:00:57;;;;;;;1.42;0.82;;;13.30;99.90;;;;;;4971917;28;20413;-83
2022/05/30 10:03:32;;;;;;;3.43;1.30;;;13.50;99.90;;;;;;4986946;28;20398;-85
2022/05/30 10:06:20;;;;;;;3.60;1.35;;;13.50;99.90;;;;;;4971055;28;20303;-85
2022/05/30 10:08:51;;;;;;;4.18;1.30;;;13.80;99.90;;;;;;5004634;28;20616;-85
2022/05/30 10:11:32;;;;;;;2.80;1.17;;;13.90;99.90;;;;;;4953628;28;20046;-85
2022/05/30 10:14:19;;;;;;;2.95;1.05;;;13.60;99.90;;;;;;4951692;28;20046;-85
2022/05/30 10:16:45;;;;;;;5.63;1.35;;;14.00;99.90;;;;;;4982412;28;20046;-85
2022/05/30 10:19:27;;;;;;;1.95;1.10;;;14.00;99.90;;;;;;4952895;28;20030;-87
2022/05/30 10:28:26;;;;;;;0.70;0.52;;;14.10;99.90;;;;;;4967563;28;20046;-85
2022/05/30 10:31:07;;;;;;;2.90;1.05;;;14.30;99.90;;;;;;4969455;28;20093;-87
2022/05/30 10:34:07;;;;;;;1.33;0.73;;;14.70;99.90;;;;;;4984890;28;20045;-86
2022/05/30 10:37:01;;;;;;;3.00;1.00;;;14.20;99.90;;;;;;4966093;28;20413;-86
2022/05/30 10:39:48;;;;;;;1.98;0.65;;;15.20;99.90;;;;;;4970599;28;20054;-86
2022/05/30 10:43:06;;;;;;;5.28;1.10;;;15.20;99.90;;;;;;4967815;28;20591;-86
2022/05/30 10:45:47;;;;;;;4.90;1.02;;;15.30;99.90;;;;;;4900524;28;20054;-86
2022/05/30 10:48:24;;;;;;;1.50;0.70;;;15.60;99.90;;;;;;4983989;28;20050;-84
2022/05/30 10:51:06;;;;;;;1.67;0.70;;;;;;;;;;4950188;28;20042;-85
2022/05/30 10:53:47;;;;;;;2.63;0.80;;;15.60;99.90;;;;;;4965852;28;20042;-85
2022/05/30 10:56:34;;;;;;;3.20;0.82;;;15.50;99.90;;;;;;4982654;28;20055;-85
2022/05/30 10:59:15;;;;;;;2.78;1.05;;;15.20;99.90;;;;;;4950457;28;20043;-85
2022/05/30 11:01:56;;;;;;;3.03;1.00;;;14.90;99.90;;;;;;4983818;28;20429;-85
2022/05/30 11:04:28;;;;;;;3.25;0.98;;;14.80;99.90;;;;;;4983825;28;20511;-86
2022/05/30 11:07:36;;;;;;;1.98;0.80;;;14.30;99.90;;;;;;4965442;28;21297;-85
2022/05/30 11:10:38;;;;;;;2.55;0.68;;;16.70;99.90;;;;;;4939071;28;20497;-85
2022/05/30 11:13:28;;;;;;;2.72;0.90;;;13.90;99.90;;;;;;4964872;28;20046;-85
2022/05/30 11:16:08;;;;;;;2.58;1.00;;;13.70;99.90;;;;;;4984982;28;20042;-86
2022/05/30 11:18:47;;;;;;;3.55;1.13;;;13.70;99.90;;;;;;4984526;28;20118;-84
2022/05/30 11:21:22;;;;;;;4.18;1.20;;;;;;;;;;4986944;28;20373;-86
2022/05/30 11:23:54;;;;;;;1.27;0.90;;;13.70;99.90;;;;;;4987903;28;20129;-87
2022/05/30 11:27:05;;;;;;;3.22;0.90;;;13.70;99.90;;;;;;4990727;28;20038;-86
2022/05/30 11:29:44;;;;;;;3.20;0.85;;;13.70;99.90;;;;;;4958661;28;20769;-85
2022/05/30 11:32:22;;;;;;;3.40;1.05;;;;;;;;;;4967967;28;20049;-86
2022/05/30 11:35:06;;;;;;;4.57;0.98;;;13.80;99.90;;;;;;4984592;28;20093;-86
2022/05/30 11:37:47;;;;;;;1.95;0.75;;;13.60;99.90;;;;;;4966682;28;20035;-85
2022/05/30 11:40:24;;;;;;;2.85;0.93;;;14.20;99.90;;;;;;4985859;28;20101;-85
2022/05/30 11:43:28;;;;;;;2.95;1.10;;;13.70;99.90;;;;;;4981691;28;20046;-86
2022/05/30 11:45:57;;;;;;;2.17;0.77;;;13.80;99.90;;;;;;4985299;28;20517;-86
2022/05/30 11:48:43;;;;;;;2.55;0.90;;;11.00;99.90;;;;;;4968515;28;20109;-85
2022/05/30 11:51:23;;;;;;;2.40;1.10;;;14.00;99.90;;;;;;4986010;28;20038;-85
2022/05/30 11:54:26;;;;;;;3.17;1.08;;;13.90;99.90;;;;;;4986146;28;20045;-85
2022/05/30 11:57:30;;;;;;;3.75;1.08;;;13.90;99.90;;;;;;4987325;28;20081;-85
2022/05/30 12:00:10;;;;;;;2.97;0.88;;;13.90;99.90;;;;;;4987632;28;20064;-85
2022/05/30 12:02:58;;;;;;;1.48;0.90;;;13.90;99.90;;;;;;4985500;28;20050;-85
2022/05/30 12:05:53;;;;;;;1.95;0.60;;;13.80;99.90;;;;;;4987522;28;20046;-87
2022/05/30 12:08:44;;;;;;;1.95;0.70;;;13.70;99.90;;;;;;4985888;28;20468;-85
2022/05/30 12:11:19;;;;;;;2.70;0.70;;;13.30;99.90;;;;;;4968376;28;20268;-84
2022/05/30 12:14:04;;;;;;;1.42;0.70;;;13.70;99.90;;;;;;4985109;28;20060;-86
2022/05/30 12:16:52;;;;;;;0.70;0.70;;;13.70;99.90;;;;;;5002589;28;20153;-84
2022/05/30 12:25:34;;;;;;;3.30;0.95;;;14.30;99.90;;;;;;4985573;28;20046;-86
2022/05/30 12:28:07;;;;;;;1.15;0.73;;;13.70;99.90;;;;;;4985160;28;20050;-85
2022/05/30 12:30:58;;;;;;;3.05;0.77;;;13.60;99.90;;;;;;4987737;28;20050;-86
2022/05/30 12:33:33;;;;;;;2.40;0.80;;;13.60;99.90;;;;;;4968096;28;20069;-87
2022/05/30 12:36:11;;;;;;;1.77;0.70;;;13.60;99.90;;;;;;4979238;28;20050;-85
2022/05/30 12:38:57;;;;;;;2.80;0.95;;;14.40;99.90;;;;;;4984728;28;20101;-87
2022/05/30 12:41:29;;;;;;;3.20;1.20;;;13.50;99.90;;;;;;4985009;28;20070;-87
2022/05/30 12:43:55;;;;;;;3.90;1.23;;;13.40;99.90;;;;;;4981444;28;20046;-85
2022/05/30 12:46:27;;;;;;;2.90;1.10;;;13.30;99.90;;;;;;4967765;28;20445;-85
2022/05/30 12:49:13;;;;;;;3.38;1.10;;;13.30;99.90;;;;;;4986524;28;20035;-84
2022/05/30 12:52:02;;;;;;;2.25;1.20;;;13.20;99.90;;;;;;4985900;28;20568;-86
2022/05/30 12:55:00;;;;;;;4.07;1.20;;;12.90;99.90;;;;;;4983596;28;20051;-87
2022/05/30 12:57:45;;;;;;;5.15;1.40;;;12.90;99.90;;;;;;4984484;28;20057;-84
2022/05/30 13:00:22;;;;;;;3.53;1.20;;;12.90;99.90;;;;;;4984381;28;20493;-86
2022/05/30 13:03:02;;;;;;;2.72;1.10;;;12.90;99.90;;;;;;4985517;28;20049;-85
2022/05/30 13:05:44;;;;;;;2.75;1.00;;;12.90;99.90;;;;;;4969306;28;20531;-85
2022/05/30 13:09:03;;;;;;;2.38;1.00;;;12.80;99.90;;;;;;4966767;28;20060;-86
2022/05/30 13:11:35;;;;;;;3.28;1.05;;;12.70;99.90;;;;;;4985868;28;20042;-86
2022/05/30 13:14:21;;;;;;;3.72;1.10;;;12.80;99.90;;;;;;4983711;28;20125;-86
2022/05/30 13:16:48;;;;;;;3.60;1.10;;;13.00;99.90;;;;;;4984743;28;20034;-85
2022/05/30 13:19:16;;;;;;;1.92;0.90;;;13.00;99.90;;;;;;4984460;28;20049;-86
2022/05/30 13:21:51;;;;;;;3.65;1.05;;;13.10;99.90;;;;;;4968826;28;20133;-84
2022/05/30 13:24:38;;;;;;;3.13;1.02;;;13.30;99.90;;;;;;4983189;28;20280;-86
2022/05/30 13:27:04;;;;;;;3.33;1.20;;;13.40;99.90;;;;;;4969710;28;20085;-85
2022/05/30 13:29:37;;;;;;;3.22;1.17;;;13.40;99.90;;;;;;4968558;28;20080;-87
2022/05/30 13:32:14;;;;;;;3.92;1.08;;;;;;;;;;4984138;28;20508;-85
2022/05/30 13:34:54;;;;;;;3.75;1.20;;;13.80;99.90;;;;;;4982859;28;20042;-86
2022/05/30 13:37:29;;;;;;;2.47;1.00;;;13.80;99.90;;;;;;4968062;28;20046;-86
2022/05/30 13:39:59;;;;;;;2.42;0.82;;;13.60;99.90;;;;;;4968882;28;20129;-87
2022/05/30 13:42:52;;;;;;;3.63;1.27;;;13.60;99.90;;;;;;4985791;28;20042;-86
2022/05/30 13:45:31;;;;;;;4.95;1.50;;;13.60;99.90;;;;;;4965549;28;20189;-86
2022/05/30 13:48:05;;;;;;;2.83;0.98;;;13.50;99.90;;;;;;4988572;28;20048;-86
2022/05/30 13:50:52;;;;;;;2.03;1.02;;;13.60;99.90;;;;;;4968973;28;20061;-86